Sandwich, New Hampshire
Current Conditions -  °F | °C
As of 7:15 PM on Thursday 18 Dec 2014 (Local Time) from K1P1 Reporting Station
Overcast Overcast  
Wind Chill: 24°   Ceiling: 2300
Heat Index: 32°   Visibility: 10mi
Dew Point: 31°   Wind: 10mph
Humidity: 95%   Direction: 290°WNW
Pressure: 29.83"   Gusts: 16mph
Location:  43.8351°N, 71.478°W
Report Text: K1P1 190015Z AUTO 29009G14KT 10SM SCT017 OVC023 00/M01 A2983 RMK AO2 T00011006
Loading
Personal Weather Stations






























Interactive Weather Map New forecast layout! Learn more

10-Day Weather Forecast

Advertisements
Track Severe Weather on mobile